x

Cal Poly Pier, Ca (cpxc1) Weather Station

9:15pm - Tue 17th Jan 2017 All times are PST. -8 hours from GMT.

  • Wind
    2mph, 3mph gusts
  • Air Temp 49°f
  • Sea Pressure 1021.5mb
  • Cal Poly Pier, Ca
  • Cal Poly Pier, Ca

More Historic Weather Station data

Upgrade to MSW Pro to gain access to the past 30 days of data for over 8000 Wavebouys and Weather Stations around the globe.

Join Pro

Comparision Forecast

View Surf forecast
   
Tue 01/17 9:15pm 2 3 mph 1021.5mb 49f
9:02pm 8 10 mph 1021.5mb 49f
8:48pm 8
mph
1021.3mb 50f
8:44pm 7 8 mph 1021.3mb 50f
8:34pm 8 9 mph 1021.3mb 49f
8:30pm 7 8 mph 1021.3mb 49f
8:17pm 7 8 mph 1021.3mb 50f
8:03pm 7 8 mph 1021.3mb 50f
7:49pm 7 8 mph 1021.2mb 50f
7:35pm 3 5 mph 1021.2mb 51f
7:22pm 6
mph
1021mb 51f
7:18pm 6 7 mph 1020.8mb 51f
7:08pm 5 6 mph 1021mb 51f
7:04pm 6
mph
1020.8mb 51f
6:50pm 5 6 mph 1020.6mb 51f
6:37pm 5 6 mph 1020.6mb 52f
6:23pm 2
mph
1020.5mb 53f
6:09pm 2
mph
1020.3mb 53f
6:05pm 2
mph
1020.3mb 53f
5:55pm  -  1 mph 1020.3mb 54f
5:38pm 2 3 mph 1020.1mb 55f
5:24pm 3 5 mph 1019.8mb 55f
5:10pm 3 5 mph 1019.8mb 56f
4:57pm 2 3 mph 1020mb 57f
4:53pm 2
mph
1020mb 58f
4:43pm 1 2 mph 1020mb 59f
4:39pm 1 2 mph 1020.1mb 59f
4:25pm 3
mph
1020.5mb 58f
4:12pm 2
mph
1020.3mb 59f
3:58pm 2
mph
1020mb 61f
3:44pm  -  mph 1020.1mb 62f
3:40pm  -  1 mph 1020.3mb 62f
3:30pm  -  2 mph 1020mb 61f
3:27pm 1 2 mph 1020mb 61f
3:13pm 2
mph
1020.1mb 60f
2:59pm 3 5 mph 1020mb 60f
2:45pm 1
mph
1020mb 60f
2:32pm 2 3 mph 1019.8mb 58f
2:28pm 3
mph
1020mb 58f
2:18pm 2 3 mph 1020mb 58f
2:14pm  -  2 mph 1019.8mb 59f
2:00pm 2 3 mph 1020mb 58f
1:47pm 3 5 mph 1020mb 59f
1:33pm 2 3 mph 1020.1mb 60f
1:19pm 6
mph
1020.1mb 59f
1:15pm 5 6 mph 1020.3mb 59f
1:05pm 6 7 mph 1020.3mb 58f
1:02pm 6
mph
1020.1mb 58f
12:48pm  -  2 mph 1020.1mb 59f
12:34pm 5 6 mph 1020.6mb 59f
12:20pm 8 9 mph 1020.8mb 60f
12:07pm  -  2 mph 1021mb 61f
12:03pm  -  1 mph 1021mb 60f
11:53am 6
mph
1020.8mb 60f
11:49am 5 6 mph 1020.8mb 60f
11:35am 5 6 mph 1020.8mb 57f
11:22am 5 6 mph 1020.8mb 55f
11:08am 5 6 mph 1020.5mb 55f
10:54am 2
mph
1020.5mb 57f
10:50am 2 3 mph 1020.5mb 56f
10:40am  -  1 mph 1020.3mb 56f
10:37am 2
mph
1020.3mb 55f
10:23am 2
mph
1020mb 55f
10:09am  -  1 mph 1020mb 54f
9:55am 2
mph
1019.6mb 52f
9:42am 6 8 mph 1020mb 51f
9:38am 6 7 mph 1020.1mb 51f
9:28am 3 5 mph 1020.3mb 51f
9:24am 3 5 mph 1020.3mb 51f
9:10am 3 5 mph 1020.1mb 49f
8:57am 7 8 mph 1020mb 48f
8:43am 3 5 mph 1020mb 49f
8:29am 6 8 mph 1019.8mb 46f
8:25am 8
mph
1019.8mb 45f
8:15am 10 11 mph 1019.6mb 44f
8:12am 11 13 mph 1019.6mb 43f
7:58am 9 10 mph 1019.8mb 42f
7:44am 6 8 mph 1020mb 42f
7:30am 6 8 mph 1020mb 42f
7:17am 8 9 mph 1019.8mb 42f
7:13am 8
mph
1019.8mb 43f
7:03am 8 9 mph 1019.8mb 43f
6:59am 8
mph
1019.8mb 42f
6:45am 8 9 mph 1019.6mb 42f
6:32am 6
mph
1019.6mb 43f
6:18am 8
mph
1019.8mb 42f
6:04am 6 7 mph 1019.6mb 44f
6:00am 5 6 mph 1019.6mb 44f
5:50am 8
mph
1019.4mb 44f
5:47am 8
mph
1019.4mb 45f
5:33am 5 6 mph 1019.4mb 46f
5:19am 8 10 mph 1019.3mb 45f
5:05am 13 14 mph 1019.3mb 44f
4:52am 11 14 mph 1019.1mb 45f
4:48am 8 10 mph 1019.1mb 45f
4:34am 8 9 mph 1019.1mb 45f
4:20am 10 11 mph 1019.1mb 44f
4:07am 10 11 mph 1019.3mb 44f
3:53am 8 10 mph 1019.4mb 44f
3:39am 10 11 mph 1019.4mb 44f
3:35am 10 11 mph 1019.6mb 44f
3:22am 7 8 mph 1019.6mb 45f
3:08am 8 9 mph 1019.4mb 45f
2:54am 7 9 mph 1019.6mb 44f
2:40am 8 10 mph 1019.4mb 44f
2:27am 9 10 mph 1019.4mb 44f
2:23am 8 9 mph 1019.3mb 44f
2:09am 8 9 mph 1019.3mb 45f
1:55am 10 11 mph 1019.3mb 45f
1:42am 8 10 mph 1019.1mb 45f
1:28am 8 9 mph 1019.1mb 45f
1:14am 8 10 mph 1018.9mb 45f
1:10am 8 10 mph 1018.9mb 45f
12:57am 9 10 mph 1018.9mb 45f
12:43am 8 9 mph 1019.1mb 45f
12:29am 7 9 mph 1019.1mb 45f
12:15am 8 10 mph 1019.1mb 44f
12:02am 7 9 mph 1019.3mb 44f
Mon 01/16 11:58pm 7 8 mph 1019.3mb 44f
11:44pm 3 5 mph 1019.1mb 44f
11:30pm 7 8 mph 1019.3mb 44f
11:17pm 6 7 mph 1019.4mb 45f
11:03pm 6 8 mph 1019.6mb 45f
10:49pm 5 6 mph 1019.6mb 46f
10:45pm 3 6 mph 1019.6mb 46f
10:35pm 5 7 mph 1019.6mb 47f
10:32pm 5 6 mph 1019.6mb 48f
10:18pm 6 7 mph 1019.4mb 48f
10:04pm 6
mph
1019.3mb 49f
9:50pm 8
mph
1019.3mb 49f
9:37pm 9 10 mph 1019.3mb 48f
9:33pm 8 10 mph 1019.3mb 48f
9:23pm 8 9 mph 1019.4mb 48f
9:19pm 8 9 mph 1019.4mb 49f
9:05pm 7 8 mph 1019.3mb 49f
8:52pm 6 7 mph 1019.1mb 49f
8:38pm 9 10 mph 1018.9mb 48f
8:24pm 8
mph
1018.9mb 49f
8:20pm 8 9 mph 1018.8mb 49f
8:10pm 6 7 mph 1018.8mb 49f
8:07pm 6 8 mph 1018.8mb 49f
7:53pm 6 7 mph 1018.6mb 50f
7:39pm 7 8 mph 1018.4mb 49f
7:25pm 6 8 mph 1018.4mb 49f
7:12pm 7 8 mph 1018.4mb 50f
7:08pm 8
mph
1018.4mb 50f
6:58pm 7 8 mph 1018.6mb 50f
6:54pm 6 8 mph 1018.6mb 50f
6:40pm 6 7 mph 1018.6mb 51f
6:27pm 6 8 mph 1018.4mb 50f
6:13pm 3 6 mph 1018.4mb 51f
5:59pm 8
mph
1018.4mb 52f
5:55pm 7 8 mph 1018.4mb 52f
5:45pm 5 7 mph 1018.6mb 53f
5:42pm 7 8 mph 1018.6mb 53f
5:28pm 2 3 mph 1018.6mb 54f
5:14pm 2
mph
1018.6mb 55f
5:00pm 2
mph
1018.6mb 56f
4:47pm 2
mph
1018.6mb 57f
4:43pm 2 3 mph 1018.6mb 57f
4:33pm 2 3 mph 1018.8mb 58f
4:29pm 2 3 mph 1018.4mb 59f
4:15pm  -  1 mph 1018.6mb 61f
4:02pm  -  1 mph 1018.8mb 61f
3:48pm 1 2 mph 1018.6mb 60f
3:30pm 6
mph
1018.8mb 57f
3:20pm 2 5 mph 1018.6mb 58f
3:17pm 3 5 mph 1018.4mb 58f
3:03pm 5 6 mph 1018.4mb 57f
2:49pm 3 5 mph 1018.6mb 58f
2:35pm 2 6 mph 1018.8mb 58f
2:22pm 1 2 mph 1018.4mb 59f
2:18pm  -  2 mph 1018.8mb 59f
2:08pm 3 5 mph 1018.6mb 58f
1:50pm 3 5 mph 1018.8mb 57f
1:37pm 6
mph
1018.6mb 56f
1:23pm 5 6 mph 1018.9mb 56f
1:09pm 5 6 mph 1018.9mb 56f
12:55pm 5
mph
1019.1mb 56f
12:52pm 5 6 mph 1019.1mb 56f
12:38pm 5 6 mph 1019.3mb 56f
12:24pm 6 8 mph 1019.4mb 56f
12:10pm 5 6 mph 1019.6mb 56f
11:57am 6 7 mph 1020mb 55f
11:43am 3 5 mph 1020.1mb 55f
11:39am 5 6 mph 1020.1mb 55f
11:29am 6 7 mph 1020.3mb 54f
11:25am 6
mph
1020.5mb 54f
11:12am 6
mph
1020.6mb 53f
10:58am 1 2 mph 1020.6mb 57f
10:44am 3 5 mph 1020.6mb 55f
10:30am  -  1 mph 1020.6mb 56f
10:27am 2
mph
1020.6mb 55f
10:13am 6 7 mph 1020.6mb 53f
9:59am 5 6 mph 1020.8mb 52f
9:45am 6 7 mph 1020.8mb 51f
9:32am 6
mph
1020.8mb 50f
9:18am 9 10 mph 1020.6mb 48f
9:14am 8 10 mph 1020.6mb 48f
9:00am 8 10 mph 1020.5mb 47f
8:47am 8 9 mph 1020.1mb 46f
8:33am 6
mph
1020.1mb 46f
8:19am 7 8 mph 1020.1mb 45f
8:15am 6 7 mph 1020mb 45f
8:05am 8
mph
1019.8mb 44f
8:02am 6 8 mph 1019.8mb 44f
7:48am 6 8 mph 1019.8mb 43f
7:34am 10 11 mph 1019.6mb 44f
7:20am 5 6 mph 1019.6mb 43f
7:07am 7 10 mph 1019.6mb 42f
7:03am 8 9 mph 1019.6mb 42f
6:53am 9 10 mph 1019.8mb 43f
6:49am 8 10 mph 1019.6mb 43f
6:35am 9 10 mph 1019.6mb 44f
6:22am 7 8 mph 1019.4mb 44f
6:08am 5 7 mph 1019.3mb 43f
5:54am 6 8 mph 1019.1mb 43f
5:50am 6 7 mph 1019.1mb 43f
5:40am 8
mph
1018.9mb 42f
5:37am 6 7 mph 1019.1mb 43f
5:23am 5 6 mph 1018.9mb 44f
5:09am 6 7 mph 1018.9mb 44f
4:55am 5 6 mph 1018.9mb 44f
4:42am 7 8 mph 1018.8mb 45f
4:38am 8 10 mph 1018.8mb 44f
4:28am 8 9 mph 1018.6mb 44f
4:24am 6 7 mph 1018.8mb 43f
4:10am 6 7 mph 1018.6mb 43f
3:57am 7 8 mph 1018.6mb 44f
3:43am 3 5 mph 1018.4mb 46f
3:29am 5 7 mph 1018.6mb 46f
3:25am 6 8 mph 1018.6mb 46f
3:15am 9 10 mph 1018.6mb 46f
3:12am 8
mph
1018.6mb 46f
2:58am 6
mph
1018.6mb 47f
2:44am 10 11 mph 1018.4mb 49f
2:30am 2 5 mph 1018.6mb 45f
2:17am 6 8 mph 1018.9mb 46f
2:13am 9 10 mph 1018.8mb 46f
2:03am 8 9 mph 1019.1mb 44f
1:59am 7 8 mph 1019.1mb 45f
1:45am 6 8 mph 1019.3mb 45f
1:32am 6 8 mph 1019.4mb 44f
1:18am 7 8 mph 1019.4mb 45f
1:04am 6 7 mph 1019.4mb 45f
1:00am 7 8 mph 1019.4mb 45f
12:50am 6 8 mph 1019.4mb 44f
12:46am 6 8 mph 1019.4mb 44f
12:33am 6 8 mph 1019.4mb 45f
12:19am 2 3 mph 1019.6mb 46f
12:05am 5 6 mph 1019.6mb 46f
Sun 01/15 11:51pm 6 8 mph 1019.6mb 46f
11:38pm 3 5 mph 1019.6mb 48f
11:34pm 2 3 mph 1019.8mb 48f
11:20pm 7 8 mph 1019.8mb 48f
11:06pm 5
mph
1019.6mb 48f
10:53pm 3 5 mph 1019.8mb 49f
10:39pm 7 8 mph 1019.8mb 48f
10:25pm 9 10 mph 1019.8mb 49f
10:21pm 6 7 mph 1020mb 49f
10:11pm 2
mph
1020mb 49f
10:08pm 5 6 mph 1019.8mb 50f
9:54pm 3 6 mph 1019.8mb 49f
9:40pm 6 8 mph 1020mb 49f
9:26pm 5 6 mph 1019.8mb 49f
9:13pm 9 10 mph 1019.8mb 50f
9:09pm 8 10 mph 1019.4mb 50f
8:59pm 8 9 mph 1019.4mb 50f
8:55pm 6
mph
1019.3mb 50f
8:41pm 2
mph
1019.3mb 51f
8:28pm 9 10 mph 1019.1mb 52f
8:14pm 11 13 mph 1019.1mb 52f
8:00pm 11 13 mph 1018.9mb 53f
7:56pm 11 14 mph 1018.9mb 54f
7:46pm 10 13 mph 1018.9mb 53f
7:43pm 13 15 mph 1018.9mb 53f
7:29pm 10 13 mph 1019.1mb 54f
7:15pm 10 11 mph 1019.1mb 53f
7:01pm 14 16 mph 1018.9mb 53f
6:48pm 13 15 mph 1018.9mb 53f
6:44pm 14 15 mph 1018.9mb 53f
6:34pm 11 14 mph 1018.8mb 53f
6:30pm 14 16 mph 1018.8mb 53f
6:16pm 14 15 mph 1018.6mb 54f
6:03pm 10 11 mph 1018.4mb 54f
5:49pm 9 10 mph 1018.6mb 54f
5:35pm 10
mph
1018.4mb 55f
5:31pm 8 9 mph 1018.4mb 56f
5:21pm 9 10 mph 1018.2mb 57f
5:18pm 9 10 mph 1018.2mb 57f
5:04pm 7 8 mph 1018.1mb 58f
4:50pm 7 9 mph 1017.9mb 59f
4:36pm  -  1 mph 1017.7mb 61f
4:23pm 1 2 mph 1017.9mb 60f
4:19pm 1 2 mph 1017.9mb 60f
4:09pm 2 3 mph 1017.7mb 60f
4:05pm 2
mph
1017.9mb 60f
3:51pm 2 3 mph 1017.2mb 58f
3:24pm 2 3 mph 1017.4mb 59f
3:10pm 5 6 mph 1017.2mb 58f
3:06pm 5 6 mph 1017.4mb 58f
2:56pm 3 5 mph 1017.4mb 58f
2:53pm 2 5 mph 1017.2mb 58f
2:39pm 5
mph
1017.4mb 57f
2:25pm 6 8 mph 1017.2mb 57f
2:11pm 6
mph
1017.4mb 57f
1:58pm 6 8 mph 1017.2mb 57f
1:54pm 6 8 mph 1017.2mb 57f
1:44pm 5 7 mph 1017.4mb 57f
1:40pm 5 6 mph 1017.5mb 57f
1:26pm 3 5 mph 1017.4mb 57f
1:13pm 3 5 mph 1017.7mb 56f
12:59pm 5 8 mph 1017.7mb 58f
12:45pm 2
mph
1018.1mb 56f
12:41pm 2 3 mph 1018.1mb 57f
12:31pm 3 5 mph 1018.2mb 57f
12:28pm  -  2 mph 1018.4mb 56f
12:14pm 2 5 mph 1018.6mb 57f
12:00pm  -  3 mph 1018.8mb 57f
11:46am 6 8 mph 1018.9mb 57f
11:33am 10 13 mph 1019.1mb 56f
11:29am 9 11 mph 1019.3mb 56f
11:19am 2
mph
1019.4mb 56f
11:15am 5 6 mph 1019.4mb 57f
11:01am 7 8 mph 1019.6mb 56f
10:48am  -  2 mph 1019.6mb 57f
10:34am 7 13 mph 1019.8mb 56f
10:20am 5 7 mph 1019.8mb 55f
10:16am 3 6 mph 1019.8mb 55f
10:06am 5 6 mph 1019.8mb 55f
10:03am 8 10 mph 1019.6mb 55f
9:49am 9 11 mph 1019.6mb 54f
9:35am 8 11 mph 1019.4mb 54f
9:21am 8 13 mph 1019.3mb 54f
9:08am 10 13 mph 1019.1mb 54f
9:04am 8 10 mph 1018.9mb 54f
8:54am 10 11 mph 1018.8mb 53f
8:50am 11 14 mph 1018.8mb 53f
8:36am 10 11 mph 1018.8mb 53f
8:23am 10 13 mph 1018.6mb 52f
8:09am 11 14 mph 1018.2mb 52f
7:55am 7 8 mph 1018.4mb 52f
7:51am 11 14 mph 1018.4mb 52f
7:41am 10 13 mph 1018.2mb 52f
7:38am 9 11 mph 1018.2mb 52f
7:24am 7 9 mph 1018.2mb 52f
7:10am 9 10 mph 1018.1mb 52f
6:56am 7 8 mph 1018.2mb 52f
6:43am 5 6 mph 1018.2mb 52f
6:39am 2 5 mph 1018.2mb 52f
6:29am 3 5 mph 1018.2mb 52f
6:25am 7 8 mph 1018.2mb 52f
6:11am 3 6 mph 1018.1mb 51f
5:58am 2
mph
1018.2mb 52f
5:44am 3 5 mph 1018.2mb 52f
5:30am 3 5 mph 1018.2mb 52f
5:26am 3 5 mph 1018.2mb 53f
5:16am 3 7 mph 1018.1mb 53f
5:13am 3 5 mph 1018.2mb 53f
4:59am 5 6 mph 1018.2mb 54f
4:45am 3 5 mph 1018.4mb 54f
4:31am 7 10 mph 1018.2mb 53f
4:18am 3 5 mph 1018.2mb 53f
4:04am 2 3 mph 1018.2mb 53f
3:46am 5 6 mph 1018.1mb 53f
3:33am 5 8 mph 1017.9mb 54f
3:19am 7 11 mph 1017.9mb 54f
3:05am 8 11 mph 1018.1mb 55f
2:51am 11 14 mph 1018.1mb 55f
2:48am 9 14 mph 1018.1mb 55f
2:38am 11 16 mph 1018.1mb 55f
2:34am 17 21 mph 1017.9mb 55f
2:20am 10 14 mph 1018.1mb 54f
2:06am 6 7 mph 1018.1mb 54f
1:53am 3 5 mph 1018.2mb 55f
1:39am 5 6 mph 1018.1mb 55f
1:35am 6 8 mph 1018.1mb 56f
1:25am 6 8 mph 1018.1mb 56f
1:21am 6 7 mph 1018.2mb 56f
1:08am 10 15 mph 1018.2mb 56f
12:54am 7 10 mph 1018.2mb 56f
12:40am 10 13 mph 1018.2mb 56f
12:26am 11 15 mph 1018.4mb 56f
12:23am 9 15 mph 1018.4mb 56f
12:13am 10 14 mph 1018.2mb 56f
12:09am 10 14 mph 1018.4mb 56f
Sat 01/14 11:55pm 15 20 mph 1018.2mb 56f
11:41pm 13 15 mph 1018.4mb 57f
11:28pm 8 14 mph 1018.4mb 57f
11:14pm 7 10 mph 1018.6mb 56f
11:10pm 7 8 mph 1018.6mb 56f
11:00pm 10 13 mph 1018.6mb 56f
10:56pm 13 15 mph 1018.6mb 56f
10:43pm 11 14 mph 1018.6mb 56f
10:29pm 14 16 mph 1018.6mb 56f
10:15pm 8 10 mph 1018.8mb 55f
10:01pm 9 10 mph 1018.8mb 55f
9:58pm 10 11 mph 1018.8mb 55f
9:48pm 14 15 mph 1018.8mb 55f
9:44pm 11 13 mph 1018.8mb 54f
9:30pm 7 8 mph 1018.9mb 54f
9:16pm 6 7 mph 1018.9mb 54f
9:03pm 1 2 mph 1019.1mb 52f
8:49pm 3 5 mph 1019.1mb 52f
8:35pm 2 3 mph 1019.3mb 53f
8:31pm 2
mph
1019.1mb 53f
8:18pm 3 5 mph 1019.1mb 54f
8:04pm 6
mph
1019.3mb 53f
7:50pm 3
mph
1019.3mb 55f
7:36pm 3 5 mph 1019.4mb 56f
7:33pm 6
mph
1019.4mb 56f
7:23pm 3 5 mph 1019.6mb 56f
7:19pm 5 6 mph 1019.4mb 55f
7:05pm  -  1 mph 1019.4mb 55f
6:51pm 2
mph
1019.4mb 56f
6:38pm 1 2 mph 1019.3mb 56f
6:24pm 6 8 mph 1019.1mb 57f
6:10pm 7 9 mph 1018.9mb 58f
6:06pm 7 10 mph 1018.9mb 58f
5:53pm 5 8 mph 1018.8mb 59f
5:39pm 5
mph
1018.8mb 60f
5:25pm 8 9 mph 1018.6mb 60f
5:11pm 7 9 mph 1018.8mb 61f
5:08pm 6 8 mph 1018.8mb 61f
4:58pm 6 8 mph 1018.8mb 62f
4:54pm 6 7 mph 1019.1mb 62f
4:40pm  -  2 mph 1018.8mb 62f
4:26pm 5 6 mph 1018.8mb 62f
4:13pm 6
mph
1018.8mb 61f
3:59pm 8 9 mph 1019.1mb 61f
3:45pm 9 10 mph 1019.3mb 61f
3:41pm 8 9 mph 1019.1mb 61f
3:28pm 8 10 mph 1018.9mb 64f
3:14pm 3 5 mph 1019.1mb 64f
3:00pm 8 14 mph 1018.8mb 64f
2:46pm 10 11 mph 1018.4mb 64f
2:33pm 10 13 mph 1018.6mb 64f
2:29pm 10 14 mph 1018.6mb 64f
2:15pm 11 14 mph 1018.4mb 64f
2:01pm 10 13 mph 1018.6mb 63f
1:48pm 11 14 mph 1018.8mb 63f
1:34pm 3 7 mph 1018.8mb 60f
1:20pm 3 6 mph 1018.9mb 59f
1:16pm 3 6 mph 1019.1mb 59f
1:06pm 8
mph
1019.1mb 57f
1:03pm 6 8 mph 1019.3mb 58f
12:49pm 5 8 mph 1019.4mb 60f
12:35pm 8 10 mph 1019.6mb 58f
12:21pm 3 5 mph 1019.8mb 58f
12:08pm 3 6 mph 1020mb 59f
12:04pm 3 5 mph 1020.1mb 58f
11:54am 3 5 mph 1020.1mb 58f
11:50am 2 5 mph 1020.1mb 57f
11:36am 10 11 mph 1020.3mb 54f
11:23am 14 15 mph 1020.5mb 54f
11:09am 13 15 mph 1020.6mb 55f
10:55am 9 10 mph 1021mb 54f
10:51am 6
mph
1021.2mb 54f
10:41am 6
mph
1021.2mb 54f
10:38am 5
mph
1021.3mb 54f
10:24am 5 6 mph 1021.3mb 55f
10:10am 6
mph
1021.5mb 54f
9:56am 1 2 mph 1021.9mb 53f
9:43am  -  1 mph 1021.7mb 55f
9:39am  -  1 mph 1021.5mb 55f
9:29am  -  1 mph 1021.5mb 56f
9:25am  -  mph 1021.7mb 55f
9:11am  -  1 mph 1021.9mb 54f
8:58am 3 5 mph 1021.7mb 52f
8:44am 1 2 mph 1021.7mb 54f
8:30am 1 2 mph 1021.7mb 52f
8:26am 2 3 mph 1021.5mb 52f
8:16am 5 6 mph 1021.5mb 50f
8:13am 5 6 mph 1021.3mb 50f
7:59am 3 5 mph 1021.5mb 51f
7:45am 2 3 mph 1021.3mb 50f
7:31am 2
mph
1021.3mb 52f
7:18am 2 3 mph 1021.2mb 52f
7:14am 2 3 mph 1021.3mb 51f
7:04am 5
mph
1021.3mb 51f
7:00am 8
mph
1021.3mb 51f
6:46am  -  1 mph 1021.2mb 51f
6:33am 6 8 mph 1020.8mb 52f
6:19am 10 13 mph 1020.8mb 53f
6:05am 7 8 mph 1020.8mb 53f